Disclaimer   
PNR Super Search
 ♦ 
×
HashTag:
PNR Number:
Train Type:
Train:
From Station:
To Station:
Train Class:
2SSLCCEx3AFC2A1A3E
WL Quota:
DOJ From:
DOJ To:
Blogger:
Traveller:
Predictor:
Prediction:
WLRACConf
Stamper:
Final:
WLRACConfVoidQ-ConfUnStamped
Status:
Reaction:

Search
  Go  
 
Tue May 26, 2015 15:20:17 ISTHomeTrainsΣChainsAtlasPNRForumGalleryNewsFAQTripsMembersLoginFeedback
Tue May 26, 2015 15:20:17 IST
Post PNRPNR StatusModify Search

Ticket PNR Status Inquiry - PNR: 810-xxxxxxx (E-Ticket)

OLD STATUS

Status Last Updated on: May 21 2012 (7:50PM) IST

Date of Journey: Tue May 22, 2012   Class: Sleeper - SL   (Total Seats available for this Class/Quota: Avbl >183)
Passenger 1: SX1,33/Coach Position:11 (Booking Status: W/L 43,GNWL)
Passenger 2: SX1,36/Coach Position:11 (Booking Status: W/L 44,GNWL)
Passenger 3: SX1,34/Coach Position:11 (Booking Status: W/L 45,GNWL)
Passenger 4: SX1,35/Coach Position:11 (Booking Status: W/L 46,GNWL)
Passenger 5: SX1,37/Coach Position:11 (Booking Status: W/L 47,GNWL)
Passenger 6: SX1,38/Coach Position:11 (Booking Status: W/L 48,GNWL)
Chart PREPARED

Mumbai Bandra Terminus- Dehradun Express/19019

Travel Time: 34h 46m    85 halts    Distance: 1408 km    Avg Speed: 40 km/hr
Peak Observed Speed: n/a
Type: Mail/Express
Zone: WR/Western
Departs @ 04:04 (Avg 6m late)
Platform# 1
SMTWTFS
NVS/Navsari 
Arrives @ 14:50 +1 night (Avg 23m late)
Platform# 1
SMTWTFS
HW/Haridwar Junction 

85 halts. 215 intermediate Stations between Navsari and Haridwar Junction

Show ALL intermediate Stations  Show Old Time-Table

#TrkCodeStation NameX/OArrivesAvgDepartsAvgHaltPFDay#KmSpeedElevZoneAddress
1/==/BDTSBandra Terminus  -00:05+111-222.637 WRMumbai 400050, Maharashtra
2/==/BVIBorivali  00:35+600:40+55m61-203.85019mWRMumbai - 400092, Maharashtra
3/==/BSRVasai Road  01:01+201:03+32m31-186.4747mWRVasai 401202, Maharashtra
4/==/PLGPalgharX  01:35+1801:37+222m11-146.85219mWRPalghar, Maharashtra
5/==/DRDDahanu RoadX  02:15+1202:17+132m11-113.99112mWRDahanu, Maharashtra
6/==/VAPIVapiX  02:49+1502:51+162m11-65.35427mWRVapi, Gujarat
7/==/BLValsadX  03:20+803:25+105m11-39.15715mWRValsad, Gujarat
8/==/BIMBilimora JunctionX  03:44+603:46+62m11-21.27911mWRBilimora, Gujarat
9/==/NVSNavsari»  04:02+604:04+62m110.04914mWRNavsari, Gujarat
10/==/STSuratX  04:40+104:45+35m1129.67217mWRSurat 395001, Gujarat
11/==/KSBKosamba Junction05:11+305:13+42m--161.013930mWRKosamba, Gujarat
12/==/AKVAnkleshwar JunctionX  05:21+1405:23+152m1179.643 WRAnkleshwar, Gujarat
13/==/BHBharuch JunctionX  05:36+1605:38+172m3188.987 WRBharuch, Gujarat
14/==/MYGMiyagam Karjan  06:06+1706:08+162m21129.65629mWRKarjan, Gujarat
15/==/BRCVadodara JunctionXO  06:40+1706:50+1710m21159.46736mWRVadodara 390005, Gujarat
16/==/SMLASamlaya Junction  07:14+2507:16+252m21186.067 WRVadodara, Gujarat
17/==/CPNChampaner Road Junction  07:26+2507:28+252m21197.254 WRPanchmahal, Gujarat
18/==/DRLDerolX  07:42+2407:44+232m21209.77681mWRKalol, Gujarat
19/==/KRSAKharsaliyaX  07:54+2407:56+232m21222.427107mWRPanchmahal, Gujarat
20/==/GDAGodhra Junction  08:20+1208:25+135m21233.358122mWRGodhra, Gujarat
21/==/SATSant Road  08:46+1708:47+171m21253.765169mWROrwara, Gujarat
22/==/PPDPiplod Junction  08:58+1908:59+201m21265.568209mWRPiplod, Gujarat
23/==/LMKLimkhedaXO  09:06+2309:08+272m21273.525205mWRLimkheda, Gujarat
24/==/MAMMangal MahudiX  09:29+1609:30+171m21282.197248mWRDabhada, Gujarat
25/==/DHDDahodXO  09:45+2409:50+245m21306.445313mWRDahod, Gujarat
26/==/BIOBordi  10:04+2110:05+211m--1317.068289mWRNational Highway 59, Gujarat
27/==/ANASAnasX  10:12+2210:13+221m--1325.073288mWRMadhya Pradesh 389154 ?, Madhya Pradesh
28/==/MGNMeghnagar  10:25+2210:27+232m--1339.560317mWRJhabua, Madhya Pradesh
29/==/THDRThandla Road  10:35+2310:36+231m--1347.564 WRJhabua, Madhya Pradesh
30/==/PCNPanch Pipila  10:49+2310:50+241m--1361.452369mWRSH 39A, Madhya Pradesh
31/==/AGRAmargarh  11:01+2411:02+241m--1370.950410mWRSH 39A, Madhya Pradesh
32/==/BMIBamnia  11:07+2511:09+252m--1375.145392mWRBamnia, Madhya Pradesh
33/==/BOGBhairongarh  11:17+2511:18+251m--1381.165374mWRBhairongarh Railway Station, Madhya Pradesh
34/==/RTIRaotiX  11:29+2711:30+281m--1392.953409mWRState Highway 39A, Madhya Pradesh
35/==/BILDBildiX  11:38+2811:39+281m--1400.160422mWRMadhya Pradesh, Madhya Pradesh
36/==/MRNMorwaniX  11:48+2911:49+301m--1409.121459mWRDantoda, Madhya Pradesh
37/==/RTMRatlam JunctionX  12:20+2212:40+2220m51419.849495mWRRatlam 457001, Madhya Pradesh
38/==/BODBangrod  12:52+2612:53+261m--1429.755484mWRRatlam, Madhya Pradesh
39/==/RNHRunkheraX  13:01+2813:02+291m--1437.057 WRDistrict Ujjain, Madhya Pradesh
40/==/KUHKhachrodX  13:13+2813:15+292m--1447.514 WRUjjain, Madhya Pradesh
41/==/NADNagda Junction  14:15-1014:25+310m11461.357468mWRNagda, Madhya Pradesh
42/==/MEPMahidpur RoadX  14:43+314:45+52m--1478.480493mWCRGogapur, Madhya Pradesh
43/==/LNRLuni RichhaX  14:53+714:55+72m--1489.061471mWCRAlote, Madhya Pradesh
44/==/VMAVikramgarh Alot  15:08+415:10+52m21502.251 WCRKota Division, Madhya Pradesh
45/==/THURThuria  15:19+515:21+52m--1509.971 WCRMDR 45, Madhya Pradesh
46/==/CMUChau MahlaX  15:33+715:35+92m21524.066426mWCRJhalawar, Rajasthan
47/==/SVASuwasraX  15:49+1115:50+121m--1539.462450mWCRSuwasra, Madhya Pradesh
48/==/SGZShamgarhX  16:03+1216:08+115m--1552.859463mWCRMandsaur, Madhya Pradesh
49/==/GOHGarothX  16:19+1016:20+121m21563.772441mWCRMadhya Pradesh 458880, Madhya Pradesh
50/==/BWMBhawani MandiX  16:39+1016:41+142m--1586.358384mWCRBhawani Mandi, Madhya Pradesh
51/==/JHWJhalawar Road  16:58+1117:00+122m--1602.857361mWCRJhalawar City, Rajasthan
52/==/RMARamganj Mandi JunctionXO  17:13+817:15+132m--1615.242 WCRRamganj Mandi, Rajasthan
53/==/MKXMorak  17:28+917:30+102m--1624.268337mWCRMorak, Rajasthan
54/==/DARADaraX  17:43+1217:45+142m--1639.060354mWCRDara, Rajasthan
55/==/DKNTDakaniya TalavO  18:23+1318:25+172m11677.114278mWCRKota, Rajasthan
56/==/KOTAKota JunctionX  19:05-519:35+1730m11686.436256mWCRKota, Rajasthan
57|--|GQLGurla  19:44+2019:46+202m--1691.953251mWCRSH 33, Rajasthan
58/==/KPTNKeshorai PatanXO  19:55+2019:57+202m--1699.886243mWCRSH 33, Rajasthan
59/==/LKELakheriX  20:30+2720:32+272m--1746.951 WCRBundi, Rajasthan
60/==/IDGIndargarh Sumerganj MandiXO  20:45+2720:47+282m--1757.953247mWCRIndargarh, Rajasthan
61/==/SWMSawai Madhopur Junction  21:28+2021:30+242m--1794.179266mWCRSawai Madhopur, Rajasthan
62/==/MLZMalarnaO  21:53+2521:55+252m--1824.345236mWCRSawai Madhopur, Rajasthan
63/==/GGCGangapur City  22:40+1622:45+235m21858.089270mWCRGangapur, Rajasthan
64/==/SMBJShri Mahabirji  23:08+2923:10+312m--1892.147240mWCRKarauli, Rajasthan
65/==/HANHindaun CityO  23:23+2823:25+302m--1902.344230mWCRKarauli, Rajasthan
66/==/BXNBayana JunctionXO  00:10+2200:15+215m--2935.257198mWCRBayana, Rajasthan
67/==/BTEBharatpur JunctionX  00:59+1401:00+371m--2977.225174mWCRBharatpur, Rajasthan
68/==/MTJMathura Junction  02:20+502:25+105m321010.775179mNCRMathura, Uttar Pradesh
69/==/KSVKosi Kalan  02:58+1203:00+122m121052.248189mNCRKosi Kalan, Uttar Pradesh